createdAt,value
2019-03-11T00:00:06.675Z,1001.95
2019-03-11T00:00:47.219Z,1001.98
2019-03-11T00:01:27.770Z,1002.03
2019-03-11T00:02:08.378Z,1002
2019-03-11T00:02:48.931Z,1002.01
2019-03-11T00:03:29.525Z,1002
2019-03-11T00:04:10.871Z,1002.06
2019-03-11T00:04:50.787Z,1002.1
2019-03-11T00:05:31.383Z,1002.11
2019-03-11T00:06:11.934Z,1002.03
2019-03-11T00:06:52.619Z,1002.05
2019-03-11T00:07:33.314Z,1002.06
2019-03-11T00:08:13.926Z,1002.06
2019-03-11T00:08:54.542Z,1002.06
2019-03-11T00:09:35.131Z,1002.06
2019-03-11T00:10:15.687Z,1002.07
2019-03-11T00:10:56.327Z,1002.04
2019-03-11T00:11:36.895Z,1002.12
2019-03-11T00:12:17.496Z,1002.05
2019-03-11T00:12:58.065Z,1002.07
2019-03-11T00:13:38.606Z,1002.1
2019-03-11T00:14:19.163Z,1002.13
2019-03-11T00:14:59.729Z,1002.15
2019-03-11T00:15:40.329Z,1002.15
2019-03-11T00:16:21.263Z,1002.14
2019-03-11T00:17:01.906Z,1002.21
2019-03-11T00:17:42.621Z,1002.2
2019-03-11T00:18:23.259Z,1002.13
2019-03-11T00:19:03.822Z,1002.23
2019-03-11T00:19:44.391Z,1002.23
2019-03-11T00:20:24.961Z,1002.18
2019-03-11T00:21:05.545Z,1002.19
2019-03-11T00:21:46.113Z,1002.21
2019-03-11T00:22:26.654Z,1002.24
2019-03-11T00:23:07.258Z,1002.23
2019-03-11T00:23:47.828Z,1002.24
2019-03-11T00:24:28.412Z,1002.26
2019-03-11T00:25:08.968Z,1002.28
2019-03-11T00:25:49.532Z,1002.25
2019-03-11T00:26:30.102Z,1002.28
2019-03-11T00:27:10.661Z,1002.25
2019-03-11T00:27:51.196Z,1002.3
2019-03-11T00:28:31.770Z,1002.36
2019-03-11T00:29:12.350Z,1002.4
2019-03-11T00:29:52.936Z,1002.35
2019-03-11T00:30:33.527Z,1002.39
2019-03-11T00:31:14.107Z,1002.35
2019-03-11T00:31:54.667Z,1002.42
2019-03-11T00:32:35.260Z,1002.35
2019-03-11T00:33:15.906Z,1002.37
2019-03-11T00:33:56.480Z,1002.44
2019-03-11T00:34:37.038Z,1002.38
2019-03-11T00:35:17.599Z,1002.45
2019-03-11T00:35:58.182Z,1002.52
2019-03-11T00:36:38.748Z,1002.45
2019-03-11T00:37:19.434Z,1002.45
2019-03-11T00:38:00.032Z,1002.41
2019-03-11T00:38:40.590Z,1002.48
2019-03-11T00:39:21.195Z,1002.46
2019-03-11T00:40:01.765Z,1002.45
2019-03-11T00:40:42.328Z,1002.46
2019-03-11T00:41:22.952Z,1002.48
2019-03-11T00:42:03.518Z,1002.41
2019-03-11T00:42:44.078Z,1002.47
2019-03-11T00:43:24.663Z,1002.55
2019-03-11T00:44:05.232Z,1002.53
2019-03-11T00:44:45.779Z,1002.57
2019-03-11T00:45:26.381Z,1002.53
2019-03-11T00:46:06.966Z,1002.56
2019-03-11T00:46:47.507Z,1002.64
2019-03-11T00:47:28.074Z,1002.65
2019-03-11T00:48:08.625Z,1002.65
2019-03-11T00:48:49.195Z,1002.67
2019-03-11T00:49:29.763Z,1002.65
2019-03-11T00:50:10.315Z,1002.72
2019-03-11T00:50:50.874Z,1002.75
2019-03-11T00:51:31.478Z,1002.67
2019-03-11T00:52:12.021Z,1002.71
2019-03-11T00:52:52.580Z,1002.75
2019-03-11T00:53:33.144Z,1002.72
2019-03-11T00:54:13.705Z,1002.69
2019-03-11T00:54:54.301Z,1002.76
2019-03-11T00:55:34.884Z,1002.7
2019-03-11T00:56:15.438Z,1002.77
2019-03-11T00:56:55.992Z,1002.82
2019-03-11T00:57:36.585Z,1002.73
2019-03-11T00:58:17.149Z,1002.71
2019-03-11T00:58:57.744Z,1002.72
2019-03-11T00:59:38.298Z,1002.74
2019-03-11T01:00:18.863Z,1002.76
2019-03-11T01:00:59.420Z,1002.82
2019-03-11T01:01:40.007Z,1002.73
2019-03-11T01:02:20.607Z,1002.77
2019-03-11T01:03:01.151Z,1002.85
2019-03-11T01:03:41.733Z,1002.81
2019-03-11T01:04:22.289Z,1002.82
2019-03-11T01:05:02.857Z,1002.85
2019-03-11T01:05:43.416Z,1002.86
2019-03-11T01:06:23.991Z,1002.82
2019-03-11T01:07:04.566Z,1002.87
2019-03-11T01:07:45.140Z,1002.87
2019-03-11T01:08:25.693Z,1002.92
2019-03-11T01:09:06.266Z,1002.81
2019-03-11T01:09:46.824Z,1002.8
2019-03-11T01:10:27.406Z,1002.8
2019-03-11T01:11:07.949Z,1002.86
2019-03-11T01:11:48.510Z,1002.82
2019-03-11T01:12:29.062Z,1002.91
2019-03-11T01:13:09.625Z,1002.94
2019-03-11T01:13:50.203Z,1002.89
2019-03-11T01:14:30.756Z,1002.89
2019-03-11T01:15:11.331Z,1002.93
2019-03-11T01:15:51.977Z,1002.87
2019-03-11T01:16:32.556Z,1002.81
2019-03-11T01:17:13.115Z,1002.92
2019-03-11T01:17:53.659Z,1002.9
2019-03-11T01:18:34.213Z,1002.87
2019-03-11T01:19:14.781Z,1002.96
2019-03-11T01:19:55.336Z,1002.93
2019-03-11T01:20:35.908Z,1002.87
2019-03-11T01:21:16.471Z,1002.91
2019-03-11T01:21:57.020Z,1002.88
2019-03-11T01:22:37.575Z,1002.9
2019-03-11T01:23:18.123Z,1002.95
2019-03-11T01:23:58.676Z,1002.97
2019-03-11T01:24:39.248Z,1002.93
2019-03-11T01:25:19.810Z,1002.95
2019-03-11T01:26:00.374Z,1002.93
2019-03-11T01:26:40.929Z,1002.96
2019-03-11T01:27:21.493Z,1002.93
2019-03-11T01:28:02.046Z,1002.96
2019-03-11T01:28:42.597Z,1002.93
2019-03-11T01:29:23.178Z,1002.94
2019-03-11T01:30:03.786Z,1002.89
2019-03-11T01:30:44.335Z,1002.89
2019-03-11T01:31:24.892Z,1002.94
2019-03-11T01:32:05.445Z,1002.97
2019-03-11T01:32:46.005Z,1003
2019-03-11T01:33:26.574Z,1002.99
2019-03-11T01:34:07.138Z,1003.06
2019-03-11T01:34:47.694Z,1003.03
2019-03-11T01:35:28.296Z,1002.92
2019-03-11T01:36:08.861Z,1002.98
2019-03-11T01:36:49.443Z,1002.99
2019-03-11T01:37:30.023Z,1003
2019-03-11T01:38:10.583Z,1003.02
2019-03-11T01:38:51.156Z,1003.01
2019-03-11T01:39:31.706Z,1002.91
2019-03-11T01:40:12.264Z,1002.95
2019-03-11T01:40:52.814Z,1003
2019-03-11T01:41:33.371Z,1002.92
2019-03-11T01:42:13.922Z,1002.94
2019-03-11T01:42:54.504Z,1002.95
2019-03-11T01:43:35.068Z,1002.98
2019-03-11T01:44:15.650Z,1002.97
2019-03-11T01:44:56.220Z,1002.93
2019-03-11T01:45:36.803Z,1002.92
2019-03-11T01:46:17.369Z,1003.01
2019-03-11T01:46:57.930Z,1002.98
2019-03-11T01:47:38.485Z,1003.05
2019-03-11T01:48:19.069Z,1002.95
2019-03-11T01:48:59.618Z,1002.98
2019-03-11T01:49:40.173Z,1002.95
2019-03-11T01:50:20.749Z,1002.98
2019-03-11T01:51:01.313Z,1002.96
2019-03-11T01:51:41.890Z,1002.96
2019-03-11T01:52:22.462Z,1002.98
2019-03-11T01:53:03.032Z,1002.97
2019-03-11T01:53:43.610Z,1002.98
2019-03-11T01:54:24.165Z,1002.95
2019-03-11T01:55:04.711Z,1002.98
2019-03-11T01:55:45.278Z,1002.91
2019-03-11T01:56:25.848Z,1002.89
2019-03-11T01:57:06.432Z,1002.91
2019-03-11T01:57:47.021Z,1002.9
2019-03-11T01:58:27.633Z,1002.97
2019-03-11T01:59:08.162Z,1002.96
2019-03-11T01:59:48.710Z,1002.93
2019-03-11T02:00:29.278Z,1002.9
2019-03-11T02:01:09.841Z,1002.92
2019-03-11T02:01:50.421Z,1002.94
2019-03-11T02:02:30.979Z,1002.91
2019-03-11T02:03:11.541Z,1002.89
2019-03-11T02:03:52.115Z,1002.9
2019-03-11T02:04:32.710Z,1002.88
2019-03-11T02:05:13.271Z,1002.87
2019-03-11T02:05:53.842Z,1002.9
2019-03-11T02:06:34.422Z,1002.91
2019-03-11T02:07:14.999Z,1002.87
2019-03-11T02:07:55.566Z,1002.88
2019-03-11T02:08:36.142Z,1002.9
2019-03-11T02:09:17.064Z,1002.95
2019-03-11T02:09:57.635Z,1002.96
2019-03-11T02:10:38.156Z,1002.94
2019-03-11T02:11:18.717Z,1002.94
2019-03-11T02:11:59.263Z,1002.87
2019-03-11T02:12:39.820Z,1002.95
2019-03-11T02:13:20.368Z,1002.92
2019-03-11T02:14:00.947Z,1002.91
2019-03-11T02:14:41.495Z,1002.93
2019-03-11T02:15:22.050Z,1002.9
2019-03-11T02:16:02.609Z,1002.91
2019-03-11T02:16:43.164Z,1002.9
2019-03-11T02:17:23.735Z,1002.9
2019-03-11T02:18:04.303Z,1002.94
2019-03-11T02:18:44.912Z,1002.94
2019-03-11T02:19:25.494Z,1002.88
2019-03-11T02:20:06.094Z,1002.87
2019-03-11T02:20:46.656Z,1002.87
2019-03-11T02:21:27.270Z,1002.92
2019-03-11T02:22:07.815Z,1002.92
2019-03-11T02:22:48.379Z,1002.92
2019-03-11T02:23:28.965Z,1002.86
2019-03-11T02:24:09.532Z,1002.91
2019-03-11T02:24:50.119Z,1002.9
2019-03-11T02:25:30.683Z,1002.93
2019-03-11T02:26:11.237Z,1002.84
2019-03-11T02:26:51.787Z,1002.92
2019-03-11T02:27:32.349Z,1002.9
2019-03-11T02:28:12.886Z,1002.86
2019-03-11T02:28:53.471Z,1002.92
2019-03-11T02:29:34.027Z,1002.92
2019-03-11T02:30:14.571Z,1002.91
2019-03-11T02:30:55.130Z,1002.95
2019-03-11T02:31:35.707Z,1002.92
2019-03-11T02:32:16.295Z,1002.9
2019-03-11T02:32:56.856Z,1002.93
2019-03-11T02:33:37.413Z,1003.01
2019-03-11T02:34:17.992Z,1002.98
2019-03-11T02:34:58.563Z,1002.98
2019-03-11T02:35:39.144Z,1003.01
2019-03-11T02:36:19.687Z,1002.99
2019-03-11T02:37:00.252Z,1002.97
2019-03-11T02:37:40.852Z,1002.95
2019-03-11T02:38:21.418Z,1003.05
2019-03-11T02:39:01.979Z,1002.98
2019-03-11T02:39:42.531Z,1003.02
2019-03-11T02:40:23.111Z,1002.92
2019-03-11T02:41:03.670Z,1003.02
2019-03-11T02:41:44.249Z,1003.07
2019-03-11T02:42:24.790Z,1003
2019-03-11T02:43:05.385Z,1003.02
2019-03-11T02:43:45.964Z,1002.99
2019-03-11T02:44:26.561Z,1003.03
2019-03-11T02:45:07.124Z,1003.09
2019-03-11T02:45:47.712Z,1003.03
2019-03-11T02:46:28.270Z,1003.04
2019-03-11T02:47:08.831Z,1003.04
2019-03-11T02:47:49.415Z,1003.02
2019-03-11T02:48:29.994Z,1003.07
2019-03-11T02:49:10.579Z,1003.05
2019-03-11T02:49:51.157Z,1003.05
2019-03-11T02:50:31.680Z,1003.01
2019-03-11T02:51:12.267Z,1003.02
2019-03-11T02:51:52.810Z,1003.01
2019-03-11T02:52:33.361Z,1003.03
2019-03-11T02:53:13.915Z,1003.05
2019-03-11T02:53:54.496Z,1003.02
2019-03-11T02:54:35.048Z,1003.06
2019-03-11T02:55:15.727Z,1003.02
2019-03-11T02:55:56.177Z,1003
2019-03-11T02:56:36.727Z,1003
2019-03-11T02:57:17.311Z,1002.97
2019-03-11T02:57:57.900Z,1002.94
2019-03-11T02:58:38.454Z,1002.97
2019-03-11T02:59:19.006Z,1003
2019-03-11T02:59:59.622Z,1002.92
2019-03-11T03:00:40.186Z,1002.93
2019-03-11T03:01:20.762Z,1002.92
2019-03-11T03:02:01.371Z,1002.89
2019-03-11T03:02:41.925Z,1002.91
2019-03-11T03:03:22.485Z,1002.93
2019-03-11T03:04:03.036Z,1002.9
2019-03-11T03:04:43.615Z,1002.89
2019-03-11T03:05:24.168Z,1002.83
2019-03-11T03:06:04.736Z,1002.92
2019-03-11T03:06:45.305Z,1002.9
2019-03-11T03:07:25.891Z,1002.88
2019-03-11T03:08:06.474Z,1002.89
2019-03-11T03:08:47.054Z,1002.82
2019-03-11T03:09:31.412Z,1002.85
2019-03-11T03:10:08.736Z,1002.91
2019-03-11T03:10:49.281Z,1002.86
2019-03-11T03:11:29.850Z,1002.86
2019-03-11T03:12:10.423Z,1002.89
2019-03-11T03:12:51.010Z,1002.9
2019-03-11T03:13:31.558Z,1002.9
2019-03-11T03:14:12.112Z,1002.9
2019-03-11T03:14:52.664Z,1002.9
2019-03-11T03:15:33.240Z,1002.9
2019-03-11T03:16:13.814Z,1002.84
2019-03-11T03:16:54.381Z,1002.86
2019-03-11T03:17:34.941Z,1002.83
2019-03-11T03:18:15.510Z,1002.85
2019-03-11T03:18:56.083Z,1002.82
2019-03-11T03:19:36.648Z,1002.89
2019-03-11T03:20:17.218Z,1002.88
2019-03-11T03:20:57.775Z,1002.86
2019-03-11T03:21:38.331Z,1002.84
2019-03-11T03:22:18.894Z,1002.85
2019-03-11T03:22:59.470Z,1002.89
2019-03-11T03:23:40.039Z,1002.85
2019-03-11T03:24:20.590Z,1002.86
2019-03-11T03:25:01.142Z,1002.84
2019-03-11T03:25:41.721Z,1002.84
2019-03-11T03:26:22.267Z,1002.83
2019-03-11T03:27:02.822Z,1002.79
2019-03-11T03:27:43.496Z,1002.82
2019-03-11T03:28:23.910Z,1002.82
2019-03-11T03:29:04.577Z,1002.82
2019-03-11T03:29:45.083Z,1002.85
2019-03-11T03:30:25.645Z,1002.84
2019-03-11T03:31:06.239Z,1002.8
2019-03-11T03:31:46.797Z,1002.82
2019-03-11T03:32:27.385Z,1002.82
2019-03-11T03:33:07.984Z,1002.79
2019-03-11T03:33:48.555Z,1002.79
2019-03-11T03:34:29.119Z,1002.81
2019-03-11T03:35:09.710Z,1002.83
2019-03-11T03:35:50.273Z,1002.79
2019-03-11T03:36:30.844Z,1002.83
2019-03-11T03:37:11.376Z,1002.84
2019-03-11T03:37:51.952Z,1002.79
2019-03-11T03:38:32.515Z,1002.83
2019-03-11T03:39:13.108Z,1002.8
2019-03-11T03:39:53.670Z,1002.76
2019-03-11T03:40:34.270Z,1002.81
2019-03-11T03:41:14.832Z,1002.8
2019-03-11T03:41:55.391Z,1002.76
2019-03-11T03:42:35.982Z,1002.85
2019-03-11T03:43:16.563Z,1002.8
2019-03-11T03:43:57.130Z,1002.81
2019-03-11T03:44:37.682Z,1002.79
2019-03-11T03:45:18.259Z,1002.75
2019-03-11T03:45:58.812Z,1002.73
2019-03-11T03:46:39.366Z,1002.75
2019-03-11T03:47:19.916Z,1002.77
2019-03-11T03:48:00.477Z,1002.75
2019-03-11T03:48:41.139Z,1002.79
2019-03-11T03:49:21.605Z,1002.74
2019-03-11T03:50:02.177Z,1002.71
2019-03-11T03:50:42.844Z,1002.67
2019-03-11T03:51:23.541Z,1002.7
2019-03-11T03:52:04.115Z,1002.6
2019-03-11T03:52:44.663Z,1002.71
2019-03-11T03:53:25.224Z,1002.64
2019-03-11T03:54:05.799Z,1002.67
2019-03-11T03:54:46.385Z,1002.71
2019-03-11T03:55:26.949Z,1002.64
2019-03-11T03:56:07.510Z,1002.67
2019-03-11T03:56:48.082Z,1002.64
2019-03-11T03:57:28.659Z,1002.68
2019-03-11T03:58:09.223Z,1002.7
2019-03-11T03:58:49.800Z,1002.68
2019-03-11T03:59:30.432Z,1002.6
2019-03-11T04:00:10.996Z,1002.65
2019-03-11T04:00:51.569Z,1002.6
2019-03-11T04:01:32.137Z,1002.63
2019-03-11T04:02:12.711Z,1002.64
2019-03-11T04:02:53.283Z,1002.72
2019-03-11T04:03:33.848Z,1002.69
2019-03-11T04:04:14.399Z,1002.64
2019-03-11T04:04:54.969Z,1002.67
2019-03-11T04:05:35.568Z,1002.62
2019-03-11T04:06:16.143Z,1002.59
2019-03-11T04:06:56.720Z,1002.61
2019-03-11T04:07:37.297Z,1002.61
2019-03-11T04:08:17.845Z,1002.66
2019-03-11T04:08:58.400Z,1002.6
2019-03-11T04:09:38.952Z,1002.63
2019-03-11T04:10:19.513Z,1002.66
2019-03-11T04:11:00.076Z,1002.57
2019-03-11T04:11:40.633Z,1002.66
2019-03-11T04:12:21.181Z,1002.66
2019-03-11T04:13:01.755Z,1002.61
2019-03-11T04:13:42.322Z,1002.59
2019-03-11T04:14:22.953Z,1002.6
2019-03-11T04:15:03.521Z,1002.64
2019-03-11T04:15:44.076Z,1002.58
2019-03-11T04:16:24.636Z,1002.6
2019-03-11T04:17:05.176Z,1002.58
2019-03-11T04:17:45.742Z,1002.64
2019-03-11T04:18:26.320Z,1002.57
2019-03-11T04:19:06.885Z,1002.59
2019-03-11T04:19:47.469Z,1002.65
2019-03-11T04:20:28.021Z,1002.5
2019-03-11T04:21:08.574Z,1002.57
2019-03-11T04:21:49.150Z,1002.59
2019-03-11T04:22:29.700Z,1002.53
2019-03-11T04:23:10.283Z,1002.54
2019-03-11T04:23:50.844Z,1002.58
2019-03-11T04:24:31.432Z,1002.55
2019-03-11T04:25:11.991Z,1002.53
2019-03-11T04:25:52.549Z,1002.56
2019-03-11T04:26:33.110Z,1002.54
2019-03-11T04:27:13.756Z,1002.58
2019-03-11T04:27:54.341Z,1002.52
2019-03-11T04:28:34.904Z,1002.5
2019-03-11T04:29:15.474Z,1002.54
2019-03-11T04:29:56.036Z,1002.59
2019-03-11T04:30:36.610Z,1002.51
2019-03-11T04:31:17.192Z,1002.5
2019-03-11T04:31:57.979Z,1002.51
2019-03-11T04:32:38.707Z,1002.54
2019-03-11T04:33:19.261Z,1002.51
2019-03-11T04:33:59.809Z,1002.48
2019-03-11T04:34:40.368Z,1002.56
2019-03-11T04:35:20.922Z,1002.53
2019-03-11T04:36:01.519Z,1002.51
2019-03-11T04:36:42.101Z,1002.55
2019-03-11T04:37:22.659Z,1002.58
2019-03-11T04:38:03.223Z,1002.58
2019-03-11T04:38:43.777Z,1002.56
2019-03-11T04:39:24.355Z,1002.61
2019-03-11T04:40:04.966Z,1002.59
2019-03-11T04:40:45.530Z,1002.54
2019-03-11T04:41:26.085Z,1002.51
2019-03-11T04:42:06.668Z,1002.52
2019-03-11T04:42:47.240Z,1002.5
2019-03-11T04:43:27.872Z,1002.54
2019-03-11T04:44:08.438Z,1002.52
2019-03-11T04:44:48.993Z,1002.53
2019-03-11T04:45:29.569Z,1002.55
2019-03-11T04:46:10.129Z,1002.61
2019-03-11T04:46:50.727Z,1002.56
2019-03-11T04:47:31.297Z,1002.54
2019-03-11T04:48:11.866Z,1002.6
2019-03-11T04:48:52.408Z,1002.61
2019-03-11T04:49:32.976Z,1002.53
2019-03-11T04:50:13.542Z,1002.61
2019-03-11T04:50:54.130Z,1002.61
2019-03-11T04:51:34.690Z,1002.56
2019-03-11T04:52:15.246Z,1002.63
2019-03-11T04:52:55.800Z,1002.63
2019-03-11T04:53:36.372Z,1002.6
2019-03-11T04:54:16.930Z,1002.7
2019-03-11T04:54:57.473Z,1002.66
2019-03-11T04:55:38.038Z,1002.63
2019-03-11T04:56:18.648Z,1002.65
2019-03-11T04:56:59.200Z,1002.64
2019-03-11T04:57:39.756Z,1002.59
2019-03-11T04:58:20.324Z,1002.61
2019-03-11T04:59:00.888Z,1002.63
2019-03-11T04:59:41.448Z,1002.68
2019-03-11T05:00:22.008Z,1002.67
2019-03-11T05:01:02.561Z,1002.64
2019-03-11T05:01:43.156Z,1002.65
2019-03-11T05:02:23.780Z,1002.68
2019-03-11T05:03:04.348Z,1002.66
2019-03-11T05:03:46.154Z,1002.63
2019-03-11T05:04:25.521Z,1002.56
2019-03-11T05:05:06.098Z,1002.63
2019-03-11T05:05:46.663Z,1002.66
2019-03-11T05:06:27.215Z,1002.65
2019-03-11T05:07:07.776Z,1002.7
2019-03-11T05:07:48.350Z,1002.67
2019-03-11T05:08:28.910Z,1002.66
2019-03-11T05:09:09.448Z,1002.69
2019-03-11T05:09:50.702Z,1002.68
2019-03-11T05:10:31.224Z,1002.69
2019-03-11T05:11:11.808Z,1002.66
2019-03-11T05:11:52.359Z,1002.66
2019-03-11T05:12:32.911Z,1002.63
2019-03-11T05:13:13.483Z,1002.69
2019-03-11T05:13:54.064Z,1002.62
2019-03-11T05:14:34.674Z,1002.7
2019-03-11T05:15:15.243Z,1002.66
2019-03-11T05:15:55.807Z,1002.71
2019-03-11T05:16:36.363Z,1002.69
2019-03-11T05:17:16.904Z,1002.7
2019-03-11T05:17:57.457Z,1002.72
2019-03-11T05:18:38.044Z,1002.7
2019-03-11T05:19:18.637Z,1002.67
2019-03-11T05:19:59.233Z,1002.7
2019-03-11T05:20:39.815Z,1002.68
2019-03-11T05:21:20.399Z,1002.69
2019-03-11T05:22:00.946Z,1002.66
2019-03-11T05:22:41.496Z,1002.67
2019-03-11T05:23:22.054Z,1002.7
2019-03-11T05:24:02.647Z,1002.7
2019-03-11T05:24:43.198Z,1002.67
2019-03-11T05:25:23.782Z,1002.71
2019-03-11T05:26:04.350Z,1002.69
2019-03-11T05:26:44.896Z,1002.67
2019-03-11T05:27:25.448Z,1002.65
2019-03-11T05:28:05.992Z,1002.64
2019-03-11T05:28:49.050Z,1002.64
2019-03-11T05:29:27.104Z,1002.62
2019-03-11T05:30:07.649Z,1002.65
2019-03-11T05:30:48.218Z,1002.63
2019-03-11T05:31:28.778Z,1002.67
2019-03-11T05:32:09.355Z,1002.67
2019-03-11T05:32:49.960Z,1002.63
2019-03-11T05:33:30.553Z,1002.65
2019-03-11T05:34:11.145Z,1002.64
2019-03-11T05:34:51.713Z,1002.6
2019-03-11T05:35:32.272Z,1002.63
2019-03-11T05:36:12.813Z,1002.58
2019-03-11T05:36:53.355Z,1002.6
2019-03-11T05:37:33.919Z,1002.59
2019-03-11T05:38:14.472Z,1002.61
2019-03-11T05:38:55.025Z,1002.56
2019-03-11T05:39:35.598Z,1002.58
2019-03-11T05:40:16.137Z,1002.61
2019-03-11T05:40:56.691Z,1002.57
2019-03-11T05:41:37.270Z,1002.6
2019-03-11T05:42:17.900Z,1002.59
2019-03-11T05:42:58.493Z,1002.54
2019-03-11T05:43:39.042Z,1002.56
2019-03-11T05:44:19.602Z,1002.55
2019-03-11T05:45:00.430Z,1002.6
2019-03-11T05:45:40.737Z,1002.6
2019-03-11T05:46:21.296Z,1002.61
2019-03-11T05:47:01.872Z,1002.58
2019-03-11T05:47:42.431Z,1002.59
2019-03-11T05:48:22.992Z,1002.59
2019-03-11T05:49:03.558Z,1002.64
2019-03-11T05:49:44.115Z,1002.62
2019-03-11T05:50:24.673Z,1002.62
2019-03-11T05:51:05.240Z,1002.65
2019-03-11T05:51:45.796Z,1002.61
2019-03-11T05:52:26.360Z,1002.61
2019-03-11T05:53:06.922Z,1002.56
2019-03-11T05:53:47.488Z,1002.61
2019-03-11T05:54:28.124Z,1002.64
2019-03-11T05:55:08.697Z,1002.64
2019-03-11T05:55:49.277Z,1002.69
2019-03-11T05:56:29.814Z,1002.68
2019-03-11T05:57:10.406Z,1002.62
2019-03-11T05:57:50.953Z,1002.64
2019-03-11T05:58:31.520Z,1002.64
2019-03-11T05:59:12.070Z,1002.65
2019-03-11T05:59:52.649Z,1002.62
2019-03-11T06:00:33.204Z,1002.7
2019-03-11T06:01:13.787Z,1002.66
2019-03-11T06:01:54.340Z,1002.66
2019-03-11T06:02:36.510Z,1002.65
2019-03-11T06:03:15.453Z,1002.58
2019-03-11T06:03:56.022Z,1002.62
2019-03-11T06:04:36.575Z,1002.64
2019-03-11T06:05:17.158Z,1002.68
2019-03-11T06:05:57.738Z,1002.72
2019-03-11T06:06:38.326Z,1002.69
2019-03-11T06:07:18.923Z,1002.73
2019-03-11T06:07:59.496Z,1002.75
2019-03-11T06:08:40.183Z,1002.72
2019-03-11T06:09:21.144Z,1002.73
2019-03-11T06:10:01.734Z,1002.67
2019-03-11T06:10:42.298Z,1002.72
2019-03-11T06:11:22.864Z,1002.72
2019-03-11T06:12:03.439Z,1002.69
2019-03-11T06:12:44.168Z,1002.74
2019-03-11T06:13:35.245Z,1002.76
2019-03-11T06:14:05.365Z,1002.69
2019-03-11T06:14:45.922Z,1002.73
2019-03-11T06:15:26.749Z,1002.72
2019-03-11T06:16:07.333Z,1002.77
2019-03-11T06:16:49.329Z,1002.75
2019-03-11T06:17:29.972Z,1002.76
2019-03-11T06:18:10.536Z,1002.72
2019-03-11T06:18:51.104Z,1002.8
2019-03-11T06:19:31.706Z,1002.76
2019-03-11T06:20:12.375Z,1002.77
2019-03-11T06:20:52.955Z,1002.76
2019-03-11T06:21:33.620Z,1002.77
2019-03-11T06:22:14.289Z,1002.76
2019-03-11T06:22:55.169Z,1002.73
2019-03-11T06:23:36.322Z,1002.74
2019-03-11T06:24:17.425Z,1002.74
2019-03-11T06:24:58.897Z,1002.79
2019-03-11T06:25:40.243Z,1002.8
2019-03-11T06:26:21.476Z,1002.8
2019-03-11T06:27:02.547Z,1002.76
2019-03-11T06:27:44.038Z,1002.79
2019-03-11T06:28:25.176Z,1002.8
2019-03-11T06:29:08.139Z,1002.77
2019-03-11T06:29:49.020Z,1002.81
2019-03-11T06:30:30.555Z,1002.8
2019-03-11T06:31:11.797Z,1002.81
2019-03-11T06:31:53.036Z,1002.76
2019-03-11T06:32:33.956Z,1002.78
2019-03-11T06:33:14.852Z,1002.75
2019-03-11T06:33:55.674Z,1002.81
2019-03-11T06:34:36.555Z,1002.8
2019-03-11T06:35:17.409Z,1002.81
2019-03-11T06:35:58.259Z,1002.81
2019-03-11T06:36:39.208Z,1002.83
2019-03-11T06:37:20.047Z,1002.78
2019-03-11T06:38:00.877Z,1002.83
2019-03-11T06:38:41.725Z,1002.78
2019-03-11T06:39:24.993Z,1002.76
2019-03-11T06:40:05.777Z,1002.73
2019-03-11T06:40:46.677Z,1002.82
2019-03-11T06:41:27.395Z,1002.79
2019-03-11T06:42:08.191Z,1002.77
2019-03-11T06:42:48.897Z,1002.76
2019-03-11T06:43:29.647Z,1002.75
2019-03-11T06:44:10.682Z,1002.79
2019-03-11T06:44:51.715Z,1002.76
2019-03-11T06:45:32.512Z,1002.77
2019-03-11T06:46:13.492Z,1002.74
2019-03-11T06:46:54.559Z,1002.77
2019-03-11T06:47:36.414Z,1002.79
2019-03-11T06:48:17.991Z,1002.79
2019-03-11T06:49:00.523Z,1002.8
2019-03-11T06:49:41.245Z,1002.79
2019-03-11T06:50:22.001Z,1002.76
2019-03-11T06:51:02.809Z,1002.79
2019-03-11T06:51:43.546Z,1002.79
2019-03-11T06:52:24.305Z,1002.79
2019-03-11T06:53:05.004Z,1002.78
2019-03-11T06:53:45.800Z,1002.78
2019-03-11T06:54:27.097Z,1002.74
2019-03-11T06:55:15.982Z,1002.8
2019-03-11T06:55:55.848Z,1002.78
2019-03-11T06:56:38.160Z,1002.77
2019-03-11T06:57:18.912Z,1002.77
2019-03-11T06:58:00.486Z,1002.76
2019-03-11T06:58:41.334Z,1002.78
2019-03-11T06:59:22.099Z,1002.77
2019-03-11T07:00:02.962Z,1002.77
2019-03-11T07:00:43.824Z,1002.82
2019-03-11T07:01:24.580Z,1002.79
2019-03-11T07:02:05.340Z,1002.81
2019-03-11T07:02:46.001Z,1002.78
2019-03-11T07:03:26.811Z,1002.8
2019-03-11T07:04:07.538Z,1002.79
2019-03-11T07:04:48.292Z,1002.79
2019-03-11T07:05:29.061Z,1002.8
2019-03-11T07:06:09.742Z,1002.78
2019-03-11T07:06:50.401Z,1002.83
2019-03-11T07:07:32.117Z,1002.8
2019-03-11T07:08:12.880Z,1002.78
2019-03-11T07:08:53.658Z,1002.77
2019-03-11T07:09:34.444Z,1002.78
2019-03-11T07:10:15.239Z,1002.82
2019-03-11T07:10:56.066Z,1002.83
2019-03-11T07:11:36.782Z,1002.83
2019-03-11T07:12:17.512Z,1002.84
2019-03-11T07:12:58.304Z,1002.81
2019-03-11T07:13:39.010Z,1002.84
2019-03-11T07:14:19.604Z,1002.81
2019-03-11T07:15:00.248Z,1002.83
2019-03-11T07:15:40.730Z,1002.84
2019-03-11T07:16:21.275Z,1002.83
2019-03-11T07:17:01.972Z,1002.86
2019-03-11T07:17:42.554Z,1002.82
2019-03-11T07:18:23.128Z,1002.84
2019-03-11T07:19:03.710Z,1002.85
2019-03-11T07:19:44.272Z,1002.86
2019-03-11T07:20:24.871Z,1002.89
2019-03-11T07:21:05.425Z,1002.88
2019-03-11T07:21:45.988Z,1002.92
2019-03-11T07:22:26.611Z,1002.84
2019-03-11T07:23:07.240Z,1002.92
2019-03-11T07:23:47.901Z,1002.89
2019-03-11T07:24:28.645Z,1002.87
2019-03-11T07:25:09.268Z,1002.9
2019-03-11T07:25:49.827Z,1002.87
2019-03-11T07:26:30.394Z,1002.86
2019-03-11T07:27:11.069Z,1002.88
2019-03-11T07:27:51.700Z,1002.88
2019-03-11T07:28:32.461Z,1002.86
2019-03-11T07:29:13.739Z,1002.9
2019-03-11T07:29:54.505Z,1002.89
2019-03-11T07:30:35.262Z,1002.93
2019-03-11T07:31:15.861Z,1002.96
2019-03-11T07:31:56.438Z,1003.03
2019-03-11T07:32:37.050Z,1002.96
2019-03-11T07:33:17.776Z,1003.06
2019-03-11T07:33:58.376Z,1003.06
2019-03-11T07:34:39.079Z,1003.04
2019-03-11T07:35:19.715Z,1003.02
2019-03-11T07:36:00.279Z,1003.01
2019-03-11T07:36:40.851Z,1003.09
2019-03-11T07:37:21.542Z,1003.29
2019-03-11T07:38:01.991Z,1003.23
2019-03-11T07:38:42.555Z,1003.07
2019-03-11T07:39:23.115Z,1003.19
2019-03-11T07:40:03.682Z,1003.1
2019-03-11T07:40:44.248Z,1003.09
2019-03-11T07:41:25.003Z,1003.1
2019-03-11T07:42:05.899Z,1003.11
2019-03-11T07:42:46.955Z,1003.11
2019-03-11T07:43:27.537Z,1003.12
2019-03-11T07:44:08.107Z,1003.1
2019-03-11T07:44:48.662Z,1003.16
2019-03-11T07:45:29.336Z,1003.19
2019-03-11T07:46:09.954Z,1003.2
2019-03-11T07:46:50.576Z,1003.55
2019-03-11T07:47:31.149Z,1003.53
2019-03-11T07:48:11.810Z,1003.43
2019-03-11T07:48:52.478Z,1003.32
2019-03-11T07:49:33.068Z,1003.39
2019-03-11T07:50:13.622Z,1003.17
2019-03-11T07:50:54.179Z,1003.19
2019-03-11T07:51:34.812Z,1003.16
2019-03-11T07:52:15.367Z,1003.19
2019-03-11T07:52:55.949Z,1003.1
2019-03-11T07:53:36.532Z,1003.18
2019-03-11T07:54:17.166Z,1003.16
2019-03-11T07:54:57.774Z,1003.11
2019-03-11T07:55:38.387Z,1003.14
2019-03-11T07:56:19.653Z,1003.11
2019-03-11T07:57:00.219Z,1003.15
2019-03-11T07:57:40.818Z,1003.22
2019-03-11T07:58:21.390Z,1003.13
2019-03-11T07:59:02.019Z,1003.16
2019-03-11T07:59:42.637Z,1003.14
2019-03-11T08:00:23.191Z,1003.11
2019-03-11T08:01:03.754Z,1003.15
2019-03-11T08:01:44.364Z,1003.09
2019-03-11T08:02:24.938Z,1003.16
2019-03-11T08:03:05.526Z,1003.13
2019-03-11T08:03:46.073Z,1003.14
2019-03-11T08:04:26.634Z,1003.07
2019-03-11T08:05:07.282Z,1003.09
2019-03-11T08:05:47.906Z,1003.2
2019-03-11T08:06:28.542Z,1003.15
2019-03-11T08:07:09.143Z,1003.12
2019-03-11T08:07:49.708Z,1003.1
2019-03-11T08:08:30.274Z,1003.12
2019-03-11T08:09:10.835Z,1003.18
2019-03-11T08:09:51.895Z,1003.14
2019-03-11T08:10:32.454Z,1003.12
2019-03-11T08:11:13.044Z,1003.13
2019-03-11T08:11:53.613Z,1003.08
2019-03-11T08:12:34.158Z,1003.09
2019-03-11T08:13:14.720Z,1003.18
2019-03-11T08:13:55.290Z,1003.22